createdAt,value
2018-12-16T00:01:14.599Z,0.85
2018-12-16T00:03:42.939Z,0.83
2018-12-16T00:06:11.295Z,0.84
2018-12-16T00:08:39.662Z,0.82
2018-12-16T00:11:08.030Z,0.81
2018-12-16T00:13:36.542Z,0.78
2018-12-16T00:16:04.879Z,0.79
2018-12-16T00:18:33.210Z,0.80
2018-12-16T00:21:01.580Z,0.82
2018-12-16T00:23:29.917Z,0.84
2018-12-16T00:25:58.554Z,0.85
2018-12-16T00:28:26.881Z,0.83
2018-12-16T00:30:55.260Z,0.84
2018-12-16T00:33:23.602Z,0.85
2018-12-16T00:35:51.966Z,0.86
2018-12-16T00:38:20.425Z,0.86
2018-12-16T00:40:48.768Z,0.88
2018-12-16T00:43:17.154Z,0.89
2018-12-16T00:45:45.497Z,0.87
2018-12-16T00:48:13.847Z,0.87
2018-12-16T00:50:42.215Z,0.88
2018-12-16T00:53:10.551Z,0.89
2018-12-16T00:55:38.892Z,0.89
2018-12-16T00:58:07.270Z,0.86
2018-12-16T01:00:35.619Z,0.83
2018-12-16T01:03:04.174Z,0.81
2018-12-16T01:05:32.629Z,0.82
2018-12-16T01:08:00.975Z,0.82
2018-12-16T01:10:29.352Z,0.79
2018-12-16T01:12:57.708Z,0.79
2018-12-16T01:15:26.097Z,0.76
2018-12-16T01:17:54.482Z,0.76
2018-12-16T01:20:22.865Z,0.72
2018-12-16T01:22:51.251Z,0.69
2018-12-16T01:25:19.629Z,0.70
2018-12-16T01:27:48.001Z,0.67
2018-12-16T01:30:16.384Z,0.65
2018-12-16T01:32:44.764Z,0.64
2018-12-16T01:35:13.207Z,0.62
2018-12-16T01:37:41.560Z,0.61
2018-12-16T01:40:10.064Z,0.61
2018-12-16T01:42:38.414Z,0.61
2018-12-16T01:45:06.914Z,0.60
2018-12-16T01:47:35.280Z,0.60
2018-12-16T01:50:04.587Z,0.60
2018-12-16T01:52:32.950Z,0.59
2018-12-16T01:55:01.313Z,0.61
2018-12-16T01:57:29.684Z,0.62
2018-12-16T01:59:57.979Z,0.61
2018-12-16T02:02:26.409Z,0.61
2018-12-16T02:04:54.769Z,0.61
2018-12-16T02:07:23.204Z,0.62
2018-12-16T02:09:51.547Z,0.62
2018-12-16T02:12:19.853Z,0.61
2018-12-16T02:14:48.281Z,0.62
2018-12-16T02:17:16.593Z,0.64
2018-12-16T02:19:44.947Z,0.64
2018-12-16T02:22:13.265Z,0.64
2018-12-16T02:24:41.602Z,0.63
2018-12-16T02:27:10.003Z,0.63
2018-12-16T02:29:38.359Z,0.63
2018-12-16T02:32:06.716Z,0.62
2018-12-16T02:34:35.086Z,0.62
2018-12-16T02:37:03.457Z,0.60
2018-12-16T02:39:31.833Z,0.59
2018-12-16T02:42:00.183Z,0.58
2018-12-16T02:44:28.530Z,0.57
2018-12-16T02:46:56.904Z,0.57
2018-12-16T02:49:25.263Z,0.56
2018-12-16T02:51:53.643Z,0.56
2018-12-16T02:54:21.989Z,0.56
2018-12-16T02:56:50.343Z,0.55
2018-12-16T02:59:18.707Z,0.55
2018-12-16T03:01:47.626Z,0.58
2018-12-16T03:04:16.137Z,0.59
2018-12-16T03:06:44.622Z,0.60
2018-12-16T03:09:12.974Z,0.61
2018-12-16T03:11:41.386Z,0.61
2018-12-16T03:14:09.740Z,0.60
2018-12-16T03:16:38.116Z,0.59
2018-12-16T03:19:06.569Z,0.59
2018-12-16T03:21:34.926Z,0.58
2018-12-16T03:24:03.293Z,0.58
2018-12-16T03:26:35.948Z,0.58
2018-12-16T03:29:03.233Z,0.58
2018-12-16T03:31:31.624Z,0.57
2018-12-16T03:34:00.095Z,0.59
2018-12-16T03:36:28.499Z,0.60
2018-12-16T03:38:56.921Z,0.61
2018-12-16T03:41:25.344Z,0.62
2018-12-16T03:43:53.752Z,0.61
2018-12-16T03:46:22.186Z,0.61
2018-12-16T03:48:50.591Z,0.61
2018-12-16T03:51:19.002Z,0.58
2018-12-16T03:53:47.438Z,0.56
2018-12-16T03:56:15.850Z,0.55
2018-12-16T03:59:02.244Z,0.56
2018-12-16T04:01:30.722Z,0.54
2018-12-16T04:03:59.129Z,0.53
2018-12-16T04:06:27.555Z,0.53
2018-12-16T04:08:55.960Z,0.49
2018-12-16T04:11:24.391Z,0.48
2018-12-16T04:13:52.769Z,0.47
2018-12-16T04:16:21.200Z,0.42
2018-12-16T04:18:49.626Z,0.40
2018-12-16T04:21:18.353Z,0.38
2018-12-16T04:23:46.748Z,0.35
2018-12-16T04:26:15.169Z,0.32
2018-12-16T04:28:43.704Z,0.31
2018-12-16T04:31:12.175Z,0.31
2018-12-16T04:33:40.612Z,0.29
2018-12-16T04:36:09.018Z,0.25
2018-12-16T04:38:37.478Z,0.25
2018-12-16T04:41:06.698Z,0.23
2018-12-16T04:43:35.125Z,0.22
2018-12-16T04:46:03.534Z,0.23
2018-12-16T04:48:31.975Z,0.24
2018-12-16T04:51:00.546Z,0.24
2018-12-16T04:53:35.877Z,0.24
2018-12-16T04:55:59.357Z,0.23
2018-12-16T04:58:27.768Z,0.23
2018-12-16T05:00:56.165Z,0.21
2018-12-16T05:03:24.732Z,0.21
2018-12-16T05:05:53.163Z,0.22
2018-12-16T05:08:21.566Z,0.23
2018-12-16T05:10:49.995Z,0.23
2018-12-16T05:13:18.419Z,0.23
2018-12-16T05:15:46.867Z,0.22
2018-12-16T05:18:15.298Z,0.21
2018-12-16T05:20:43.713Z,0.21
2018-12-16T05:23:12.156Z,0.22
2018-12-16T05:25:40.584Z,0.24
2018-12-16T05:28:09.009Z,0.23
2018-12-16T05:30:37.422Z,0.23
2018-12-16T05:33:06.020Z,0.24
2018-12-16T05:35:34.425Z,0.24
2018-12-16T05:38:02.829Z,0.23
2018-12-16T05:40:31.254Z,0.22
2018-12-16T05:42:59.813Z,0.22
2018-12-16T05:45:29.090Z,0.21
2018-12-16T05:47:57.494Z,0.23
2018-12-16T05:50:25.905Z,0.23
2018-12-16T05:52:54.353Z,0.25
2018-12-16T05:55:22.762Z,0.28
2018-12-16T05:57:51.175Z,0.29
2018-12-16T06:00:19.975Z,0.29
2018-12-16T06:02:48.388Z,0.30
2018-12-16T06:05:16.798Z,0.32
2018-12-16T06:07:45.432Z,0.34
2018-12-16T06:10:13.829Z,0.33
2018-12-16T06:12:42.278Z,0.33
2018-12-16T06:15:10.690Z,0.31
2018-12-16T06:17:39.093Z,0.28
2018-12-16T06:20:07.525Z,0.27
2018-12-16T06:22:36.034Z,0.29
2018-12-16T06:25:04.834Z,0.29
2018-12-16T06:27:33.184Z,0.29
2018-12-16T06:30:01.718Z,0.30
2018-12-16T06:32:30.121Z,0.29
2018-12-16T06:34:58.531Z,0.27
2018-12-16T06:37:27.139Z,0.25
2018-12-16T06:39:55.545Z,0.24
2018-12-16T06:42:23.891Z,0.22
2018-12-16T06:44:52.374Z,0.21
2018-12-16T06:47:20.730Z,0.20
2018-12-16T06:49:49.080Z,0.20
2018-12-16T06:52:17.504Z,0.21
2018-12-16T06:54:45.947Z,0.21
2018-12-16T06:57:14.293Z,0.18
2018-12-16T06:59:42.701Z,0.18
2018-12-16T07:02:11.096Z,0.17
2018-12-16T07:04:39.461Z,0.17
2018-12-16T07:07:08.149Z,0.20
2018-12-16T07:09:36.495Z,0.22
2018-12-16T07:12:04.855Z,0.23
2018-12-16T07:14:33.406Z,0.23
2018-12-16T07:17:01.750Z,0.20
2018-12-16T07:19:30.214Z,0.19
2018-12-16T07:21:58.690Z,0.18
2018-12-16T07:24:27.122Z,0.18
2018-12-16T07:26:55.538Z,0.19
2018-12-16T07:29:24.009Z,0.19
2018-12-16T07:31:52.500Z,0.17
2018-12-16T07:34:20.905Z,0.16
2018-12-16T07:36:49.611Z,0.19
2018-12-16T07:39:18.031Z,0.19
2018-12-16T07:41:46.540Z,0.20
2018-12-16T07:44:14.985Z,0.22
2018-12-16T07:46:43.359Z,0.21
2018-12-16T07:49:11.703Z,0.22
2018-12-16T07:51:40.110Z,0.24
2018-12-16T07:54:08.504Z,0.25
2018-12-16T07:56:36.936Z,0.26
2018-12-16T07:59:05.305Z,0.26
2018-12-16T08:01:33.658Z,0.26
2018-12-16T08:04:02.180Z,0.26
2018-12-16T08:06:30.724Z,0.27
2018-12-16T08:08:59.066Z,0.29
2018-12-16T08:11:27.414Z,0.30
2018-12-16T08:13:55.791Z,0.33
2018-12-16T08:16:24.145Z,0.34
2018-12-16T08:18:52.490Z,0.36
2018-12-16T08:21:20.858Z,0.37
2018-12-16T08:23:49.284Z,0.39
2018-12-16T08:26:17.701Z,0.39
2018-12-16T08:28:46.263Z,0.42
2018-12-16T08:31:14.636Z,0.43
2018-12-16T08:33:42.986Z,0.44
2018-12-16T08:36:11.367Z,0.44
2018-12-16T08:38:39.726Z,0.42
2018-12-16T08:41:08.095Z,0.42
2018-12-16T08:43:36.478Z,0.41
2018-12-16T08:46:04.922Z,0.42
2018-12-16T08:48:33.309Z,0.43
2018-12-16T08:51:01.678Z,0.42
2018-12-16T08:53:30.098Z,0.46
2018-12-16T08:55:58.544Z,0.46
2018-12-16T08:58:27.019Z,0.53
2018-12-16T09:00:55.427Z,0.54
2018-12-16T09:03:23.853Z,0.54
2018-12-16T09:05:52.398Z,0.56
2018-12-16T09:08:20.818Z,0.59
2018-12-16T09:10:49.234Z,0.62
2018-12-16T09:13:17.653Z,0.61
2018-12-16T09:15:46.184Z,0.57
2018-12-16T09:18:14.585Z,0.54
2018-12-16T09:20:43.164Z,0.51
2018-12-16T09:23:11.549Z,0.48
2018-12-16T09:25:39.980Z,0.49
2018-12-16T09:28:08.400Z,0.52
2018-12-16T09:30:37.716Z,0.51
2018-12-16T09:33:06.232Z,0.53
2018-12-16T09:35:34.758Z,0.53
2018-12-16T09:38:03.139Z,0.52
2018-12-16T09:40:31.562Z,0.54
2018-12-16T09:43:00.211Z,0.55
2018-12-16T09:45:28.631Z,0.57
2018-12-16T09:47:57.164Z,0.59
2018-12-16T09:50:25.624Z,0.59
2018-12-16T09:52:54.103Z,0.58
2018-12-16T09:55:22.571Z,0.58
2018-12-16T09:57:51.029Z,0.57
2018-12-16T10:00:19.532Z,0.57
2018-12-16T10:02:47.950Z,0.57
2018-12-16T10:05:16.380Z,0.53
2018-12-16T10:07:44.888Z,0.51
2018-12-16T10:10:13.291Z,0.51
2018-12-16T10:12:41.735Z,0.52
2018-12-16T10:15:10.231Z,0.54
2018-12-16T10:17:38.633Z,0.56
2018-12-16T10:20:09.652Z,0.60
2018-12-16T10:22:38.041Z,0.62
2018-12-16T10:25:06.451Z,0.61
2018-12-16T10:27:34.880Z,0.61
2018-12-16T10:30:04.585Z,0.61
2018-12-16T10:32:33.033Z,0.62
2018-12-16T10:35:01.448Z,0.64
2018-12-16T10:37:29.854Z,0.63
2018-12-16T10:39:58.259Z,0.62
2018-12-16T10:42:26.851Z,0.61
2018-12-16T10:44:55.261Z,0.61
2018-12-16T10:47:23.673Z,0.62
2018-12-16T10:49:52.123Z,0.60
2018-12-16T10:52:20.546Z,0.59
2018-12-16T10:54:48.994Z,0.58
2018-12-16T10:57:17.605Z,0.56
2018-12-16T10:59:46.044Z,0.54
2018-12-16T11:02:14.458Z,0.54
2018-12-16T11:04:42.922Z,0.50
2018-12-16T11:07:11.412Z,0.51
2018-12-16T11:09:39.871Z,0.52
2018-12-16T11:12:08.282Z,0.49
2018-12-16T11:14:36.675Z,0.46
2018-12-16T11:17:05.104Z,0.44
2018-12-16T11:19:33.536Z,0.47
2018-12-16T11:22:01.960Z,0.50
2018-12-16T11:24:30.378Z,0.52
2018-12-16T11:26:58.803Z,0.53
2018-12-16T11:29:27.380Z,0.54
2018-12-16T11:31:55.802Z,0.52
2018-12-16T11:34:24.222Z,0.51
2018-12-16T11:36:52.624Z,0.50
2018-12-16T11:39:21.032Z,0.51
2018-12-16T11:41:49.524Z,0.54
2018-12-16T11:44:17.965Z,0.55
2018-12-16T11:46:46.452Z,0.56
2018-12-16T11:49:14.882Z,0.55
2018-12-16T11:51:43.529Z,0.56
2018-12-16T11:54:11.924Z,0.58
2018-12-16T11:56:40.338Z,0.60
2018-12-16T11:59:08.711Z,0.63
2018-12-16T12:01:37.129Z,0.64
2018-12-16T12:04:05.632Z,0.64
2018-12-16T12:06:34.368Z,0.68
2018-12-16T12:09:02.778Z,0.71
2018-12-16T12:11:31.218Z,0.72
2018-12-16T12:13:59.633Z,0.75
2018-12-16T12:16:28.057Z,0.80
2018-12-16T12:19:00.197Z,0.85
2018-12-16T12:21:28.629Z,0.90
2018-12-16T12:23:57.161Z,0.99
2018-12-16T12:26:25.611Z,1.05
2018-12-16T12:28:54.027Z,1.09
2018-12-16T12:31:22.496Z,1.15
2018-12-16T12:33:50.889Z,1.20
2018-12-16T12:36:19.329Z,1.22
2018-12-16T12:38:47.741Z,1.14
2018-12-16T12:41:16.190Z,1.09
2018-12-16T12:43:44.604Z,1.04
2018-12-16T12:46:13.072Z,1.02
2018-12-16T12:48:41.654Z,1.00
2018-12-16T12:51:10.352Z,0.93
2018-12-16T12:53:38.736Z,0.84
2018-12-16T12:56:07.205Z,0.79
2018-12-16T12:58:36.047Z,0.79
2018-12-16T13:01:04.604Z,0.78
2018-12-16T13:03:33.027Z,0.76
2018-12-16T13:06:01.462Z,0.76
2018-12-16T13:08:29.873Z,0.76
2018-12-16T13:10:58.277Z,0.75
2018-12-16T13:13:26.719Z,0.75
2018-12-16T13:15:55.129Z,0.74
2018-12-16T13:18:23.550Z,0.74
2018-12-16T13:20:51.984Z,0.73
2018-12-16T13:23:20.525Z,0.72
2018-12-16T13:26:02.672Z,0.71
2018-12-16T13:28:31.046Z,0.72
2018-12-16T13:30:59.395Z,0.72
2018-12-16T13:33:27.799Z,0.74
2018-12-16T13:35:56.204Z,0.74
2018-12-16T13:38:25.357Z,0.77
2018-12-16T13:40:53.703Z,0.76
2018-12-16T13:43:22.065Z,0.72
2018-12-16T13:45:50.469Z,0.71
2018-12-16T13:48:18.900Z,0.69
2018-12-16T13:50:47.299Z,0.71
2018-12-16T13:53:15.766Z,0.70
2018-12-16T13:55:44.182Z,0.70
2018-12-16T13:58:12.622Z,0.68
2018-12-16T14:00:41.005Z,0.66
2018-12-16T14:03:09.455Z,0.65
2018-12-16T14:05:37.835Z,0.65
2018-12-16T14:08:06.279Z,0.65
2018-12-16T14:10:34.682Z,0.65
2018-12-16T14:13:03.095Z,0.64
2018-12-16T14:15:31.499Z,0.62
2018-12-16T14:17:59.936Z,0.58
2018-12-16T14:20:28.324Z,0.57
2018-12-16T14:22:56.751Z,0.52
2018-12-16T14:25:25.147Z,0.46
2018-12-16T14:27:53.724Z,0.41
2018-12-16T14:30:22.159Z,0.37
2018-12-16T14:32:50.575Z,0.31
2018-12-16T14:35:19.088Z,0.24
2018-12-16T14:37:47.564Z,0.17
2018-12-16T14:40:15.995Z,0.09
2018-12-16T14:42:44.404Z,0.04
2018-12-16T14:45:12.929Z,-0.02
2018-12-16T14:47:41.352Z,-0.07
2018-12-16T14:50:09.951Z,-0.08
2018-12-16T14:52:38.373Z,-0.10
2018-12-16T14:55:07.029Z,-0.16
2018-12-16T14:57:35.446Z,-0.19
2018-12-16T15:00:06.361Z,-0.19
2018-12-16T15:02:34.779Z,-0.22
2018-12-16T15:05:03.543Z,-0.22
2018-12-16T15:07:31.957Z,-0.23
2018-12-16T15:10:00.385Z,-0.24
2018-12-16T15:12:28.889Z,-0.24
2018-12-16T15:14:57.376Z,-0.31
2018-12-16T15:17:25.944Z,-0.38
2018-12-16T15:19:54.365Z,-0.43
2018-12-16T15:22:22.773Z,-0.49
2018-12-16T15:24:51.188Z,-0.53
2018-12-16T15:27:19.604Z,-0.59
2018-12-16T15:29:48.025Z,-0.63
2018-12-16T15:32:16.438Z,-0.69
2018-12-16T15:34:44.923Z,-0.76
2018-12-16T15:37:13.358Z,-0.78
2018-12-16T15:39:41.841Z,-0.79
2018-12-16T15:42:10.255Z,-0.83
2018-12-16T15:44:38.773Z,-0.86
2018-12-16T15:47:07.186Z,-0.87
2018-12-16T15:49:35.814Z,-0.87
2018-12-16T15:52:04.380Z,-0.90
2018-12-16T15:54:32.806Z,-0.92
2018-12-16T15:57:01.264Z,-0.93
2018-12-16T15:59:29.740Z,-0.95
2018-12-16T16:01:58.155Z,-0.96
2018-12-16T16:04:26.580Z,-0.95
2018-12-16T16:06:55.054Z,-0.90
2018-12-16T16:09:23.450Z,-0.88
2018-12-16T16:11:51.959Z,-0.90
2018-12-16T16:14:20.412Z,-0.95
2018-12-16T16:16:48.838Z,-1.01
2018-12-16T16:19:17.242Z,-1.05
2018-12-16T16:21:45.683Z,-1.08
2018-12-16T16:24:14.141Z,-1.11
2018-12-16T16:26:42.742Z,-1.14
2018-12-16T16:29:11.317Z,-1.17
2018-12-16T16:31:40.033Z,-1.20
2018-12-16T16:34:08.792Z,-1.22
2018-12-16T16:36:37.191Z,-1.24
2018-12-16T16:39:06.783Z,-1.25
2018-12-16T16:41:35.440Z,-1.24
2018-12-16T16:44:04.418Z,-1.23
2018-12-16T16:46:33.367Z,-1.22
2018-12-16T16:49:02.297Z,-1.19
2018-12-16T16:51:30.728Z,-1.16
2018-12-16T16:53:59.154Z,-1.11
2018-12-16T16:56:27.747Z,-1.06
2018-12-16T16:58:56.157Z,-0.99
2018-12-16T17:01:24.593Z,-0.91
2018-12-16T17:03:53.058Z,-0.85
2018-12-16T17:06:21.480Z,-0.78
2018-12-16T17:08:49.994Z,-0.72
2018-12-16T17:11:18.983Z,-0.64
2018-12-16T17:13:47.427Z,-0.60
2018-12-16T17:16:16.044Z,-0.57
2018-12-16T17:18:44.791Z,-0.52
2018-12-16T17:21:13.182Z,-0.52
2018-12-16T17:23:41.600Z,-0.49
2018-12-16T17:26:10.164Z,-0.47
2018-12-16T17:28:38.673Z,-0.46
2018-12-16T17:31:07.134Z,-0.44
2018-12-16T17:33:35.669Z,-0.43
2018-12-16T17:36:04.086Z,-0.42
2018-12-16T17:38:32.601Z,-0.41
2018-12-16T17:41:01.194Z,-0.41
2018-12-16T17:43:29.629Z,-0.40
2018-12-16T17:45:58.143Z,-0.40
2018-12-16T17:48:26.642Z,-0.39
2018-12-16T17:50:55.077Z,-0.39
2018-12-16T17:53:23.500Z,-0.38
2018-12-16T17:55:51.962Z,-0.38
2018-12-16T17:58:20.486Z,-0.38
2018-12-16T18:00:48.905Z,-0.38
2018-12-16T18:03:17.488Z,-0.39
2018-12-16T18:05:45.846Z,-0.40
2018-12-16T18:08:14.198Z,-0.43
2018-12-16T18:10:42.587Z,-0.45
2018-12-16T18:13:10.947Z,-0.46
2018-12-16T18:15:39.373Z,-0.49
2018-12-16T18:18:07.771Z,-0.49
2018-12-16T18:20:36.127Z,-0.48
2018-12-16T18:23:04.545Z,-0.48
2018-12-16T18:25:32.960Z,-0.48
2018-12-16T18:28:01.338Z,-0.45
2018-12-16T18:30:29.687Z,-0.43
2018-12-16T18:32:58.299Z,-0.41
2018-12-16T18:35:26.676Z,-0.39
2018-12-16T18:37:55.310Z,-0.39
2018-12-16T18:40:23.845Z,-0.39
2018-12-16T18:42:52.226Z,-0.38
2018-12-16T18:45:20.608Z,-0.33
2018-12-16T18:47:49.061Z,-0.28
2018-12-16T18:50:17.545Z,-0.25
2018-12-16T18:52:46.014Z,-0.25
2018-12-16T18:55:14.559Z,-0.24
2018-12-16T18:57:42.969Z,-0.24
2018-12-16T19:03:00.603Z,-0.24
2018-12-16T19:05:28.981Z,-0.23
2018-12-16T19:07:57.594Z,-0.23
2018-12-16T19:10:26.719Z,-0.24
2018-12-16T19:12:55.102Z,-0.24
2018-12-16T19:15:23.651Z,-0.23
2018-12-16T19:17:52.280Z,-0.25
2018-12-16T19:20:20.655Z,-0.22
2018-12-16T19:22:54.402Z,-0.22
2018-12-16T19:25:22.754Z,-0.21
2018-12-16T19:27:51.169Z,-0.20
2018-12-16T19:30:19.767Z,-0.21
2018-12-16T19:32:48.219Z,-0.21
2018-12-16T19:35:16.630Z,-0.20
2018-12-16T19:37:45.042Z,-0.21
2018-12-16T19:40:13.429Z,-0.20
2018-12-16T19:42:41.816Z,-0.19
2018-12-16T19:45:14.926Z,-0.16
2018-12-16T19:47:49.411Z,-0.17
2018-12-16T19:50:13.787Z,-0.17
2018-12-16T19:52:42.192Z,-0.18
2018-12-16T19:55:10.780Z,-0.20
2018-12-16T19:57:39.155Z,-0.21
2018-12-16T20:00:08.326Z,-0.21
2018-12-16T20:02:36.696Z,-0.23
2018-12-16T20:07:51.594Z,-0.26
2018-12-16T20:10:20.082Z,-0.28
2018-12-16T20:12:48.469Z,-0.30
2018-12-16T20:15:17.468Z,-0.32
2018-12-16T20:17:45.847Z,-0.30
2018-12-16T20:20:14.230Z,-0.32
2018-12-16T20:22:42.606Z,-0.32
2018-12-16T20:25:11.014Z,-0.32
2018-12-16T20:27:39.471Z,-0.31
2018-12-16T20:30:09.959Z,-0.30
2018-12-16T20:32:38.338Z,-0.33
2018-12-16T20:35:06.983Z,-0.38
2018-12-16T20:37:36.131Z,-0.40
2018-12-16T20:40:05.197Z,-0.44
2018-12-16T20:42:33.569Z,-0.47
2018-12-16T20:45:01.973Z,-0.48
2018-12-16T20:47:30.382Z,-0.50
2018-12-16T20:49:58.766Z,-0.53
2018-12-16T20:52:27.212Z,-0.55
2018-12-16T20:54:55.574Z,-0.57
2018-12-16T20:57:24.055Z,-0.58
2018-12-16T20:59:52.462Z,-0.59
2018-12-16T21:02:20.850Z,-0.60
2018-12-16T21:04:49.237Z,-0.59
2018-12-16T21:07:17.614Z,-0.56
2018-12-16T21:09:46.005Z,-0.56
2018-12-16T21:15:26.052Z,-0.61
2018-12-16T21:17:59.850Z,-0.61
2018-12-16T21:20:28.243Z,-0.58
2018-12-16T21:22:56.656Z,-0.56
2018-12-16T21:25:25.026Z,-0.52
2018-12-16T21:27:53.397Z,-0.50
2018-12-16T21:30:21.737Z,-0.48
2018-12-16T21:32:50.110Z,-0.45
2018-12-16T21:35:18.462Z,-0.44
2018-12-16T21:37:46.837Z,-0.39
2018-12-16T21:40:15.202Z,-0.30
2018-12-16T21:42:43.575Z,-0.28
2018-12-16T21:45:11.959Z,-0.25
2018-12-16T21:47:40.325Z,-0.22
2018-12-16T21:50:08.806Z,-0.17
2018-12-16T21:52:37.207Z,-0.16
2018-12-16T21:55:06.527Z,-0.15
2018-12-16T21:57:34.926Z,-0.14
2018-12-16T22:00:03.822Z,-0.14
2018-12-16T22:02:32.200Z,-0.13
2018-12-16T22:05:00.583Z,-0.16
2018-12-16T22:07:28.994Z,-0.19
2018-12-16T22:09:57.342Z,-0.20
2018-12-16T22:12:25.717Z,-0.20
2018-12-16T22:14:54.066Z,-0.21
2018-12-16T22:17:22.443Z,-0.20
2018-12-16T22:19:50.830Z,-0.21
2018-12-16T22:22:19.197Z,-0.22
2018-12-16T22:24:47.562Z,-0.21
2018-12-16T22:27:15.946Z,-0.21
2018-12-16T22:29:44.303Z,-0.19
2018-12-16T22:32:12.732Z,-0.20
2018-12-16T22:34:41.166Z,-0.21
2018-12-16T22:37:09.719Z,-0.25
2018-12-16T22:39:38.100Z,-0.29
2018-12-16T22:42:07.240Z,-0.32
2018-12-16T22:44:35.650Z,-0.37
2018-12-16T22:47:04.022Z,-0.39
2018-12-16T22:49:32.505Z,-0.40
2018-12-16T22:52:00.874Z,-0.40
2018-12-16T22:54:29.259Z,-0.41
2018-12-16T22:56:57.614Z,-0.40
2018-12-16T22:59:26.005Z,-0.39
2018-12-16T23:01:54.350Z,-0.37
2018-12-16T23:04:22.752Z,-0.36
2018-12-16T23:06:51.112Z,-0.36
2018-12-16T23:09:19.498Z,-0.32
2018-12-16T23:11:47.849Z,-0.30
2018-12-16T23:14:16.232Z,-0.31
2018-12-16T23:16:44.581Z,-0.30
2018-12-16T23:19:12.947Z,-0.30
2018-12-16T23:21:41.303Z,-0.29
2018-12-16T23:24:09.672Z,-0.28
2018-12-16T23:26:38.033Z,-0.26
2018-12-16T23:29:06.459Z,-0.24
2018-12-16T23:31:34.811Z,-0.23
2018-12-16T23:34:03.175Z,-0.23
2018-12-16T23:36:31.523Z,-0.22
2018-12-16T23:38:59.904Z,-0.23
2018-12-16T23:41:28.263Z,-0.21
2018-12-16T23:43:56.634Z,-0.17
2018-12-16T23:46:24.991Z,-0.16
2018-12-16T23:48:53.386Z,-0.15
2018-12-16T23:51:21.764Z,-0.13
2018-12-16T23:53:50.135Z,-0.08
2018-12-16T23:56:18.482Z,-0.03
2018-12-16T23:58:46.851Z,0.02
